Time;durP1;ratioP1;P1;durP2;ratioP2;P2;SDS_P1;SDS_P2;PMS_P1;PMS_P2;Temp;Humidity;BMP_temperature;BMP_pressure;BME280_temperature;BME280_humidity;BME280_pressure;Samples;Min_cycle;Max_cycle;Signal;HPM_P1;HPM_P2
2022/06/12 00:00:27;;;;;;;;;;;21.90;46.20;;;;;;6160888;23;19924;-77
2022/06/12 00:02:54;;;;;;;;;;;21.90;46.40;;;;;;6186072;23;20297;-82
2022/06/12 00:05:23;;;;;;;;;;;21.80;46.20;;;;;;6160316;23;20002;-82
2022/06/12 00:07:49;;;;;;;;;;;21.80;46.10;;;;;;6160143;23;19920;-80
2022/06/12 00:10:16;;;;;;;;;;;21.80;46.30;;;;;;6160151;23;19975;-77
2022/06/12 00:12:44;;;;;;;;;;;21.80;46.00;;;;;;6160280;23;19995;-80
2022/06/12 00:15:13;;;;;;;;;;;21.80;46.00;;;;;;6187079;23;19995;-78
2022/06/12 00:17:41;;;;;;;;;;;21.90;45.50;;;;;;6185540;23;20308;-78
2022/06/12 00:20:09;;;;;;;;;;;21.90;45.50;;;;;;6161604;23;19920;-80
2022/06/12 00:22:36;;;;;;;;;;;21.90;44.90;;;;;;6185861;23;19924;-77
2022/06/12 00:25:04;;;;;;;;;;;22.00;45.10;;;;;;6159884;23;20407;-83
2022/06/12 00:27:30;;;;;;;;;;;22.00;45.10;;;;;;6160167;23;20250;-81
2022/06/12 00:29:57;;;;;;;;;;;22.00;45.00;;;;;;6160344;23;19924;-82
2022/06/12 00:32:29;;;;;;;;;;;22.00;44.70;;;;;;6160053;23;20283;-83
2022/06/12 00:34:56;;;;;;;;;;;22.00;44.50;;;;;;6159479;23;20333;-80
2022/06/12 00:37:24;;;;;;;;;;;22.00;44.50;;;;;;6159612;23;19944;-78
2022/06/12 00:39:52;;;;;;;;;;;22.10;44.20;;;;;;6185812;23;19935;-82
2022/06/12 00:42:24;;;;;;;;;;;22.10;44.00;;;;;;6162490;23;20257;-80
2022/06/12 00:44:51;;;;;;;;;;;22.10;43.90;;;;;;6161179;23;20315;-78
2022/06/12 00:47:18;;;;;;;;;;;22.10;44.90;;;;;;6164221;23;19904;-84
2022/06/12 00:49:48;;;;;;;;;;;22.10;43.90;;;;;;6159521;23;19920;-77
2022/06/12 00:52:21;;;;;;;;;;;22.10;43.90;;;;;;6185490;23;19971;-78
2022/06/12 00:54:50;;;;;;;;;;;22.10;44.20;;;;;;6164381;23;19951;-80
2022/06/12 00:57:18;;;;;;;;;;;22.10;44.40;;;;;;6159160;23;19920;-80
2022/06/12 00:59:47;;;;;;;;;;;22.00;44.30;;;;;;6183771;23;20292;-82
2022/06/12 01:02:15;;;;;;;;;;;22.00;44.20;;;;;;6161145;23;19991;-80
2022/06/12 01:07:31;;;;;;;;;;;22.00;43.60;;;;;;6186248;23;19920;-82
2022/06/12 01:10:01;;;;;;;;;;;22.00;43.70;;;;;;6159558;23;19974;-79
2022/06/12 01:12:31;;;;;;;;;;;22.00;44.10;;;;;;6159520;23;20257;-78
2022/06/12 01:15:00;;;;;;;;;;;21.90;44.30;;;;;;6162027;23;19947;-79
2022/06/12 01:17:28;;;;;;;;;;;21.90;43.90;;;;;;6159354;23;20261;-79
2022/06/12 01:19:56;;;;;;;;;;;21.90;44.00;;;;;;6165767;23;19920;-86
2022/06/12 01:22:23;;;;;;;;;;;21.90;43.60;;;;;;6160105;23;20289;-78
2022/06/12 01:25:08;;;;;;;;;;;21.90;43.70;;;;;;6186782;23;19974;-77
2022/06/12 01:27:51;;;;;;;;;;;21.90;43.90;;;;;;6190671;23;19950;-80
2022/06/12 01:30:19;;;;;;;;;;;21.90;44.40;;;;;;6160982;23;19920;-78
2022/06/12 01:32:49;;;;;;;;;;;21.80;44.40;;;;;;6187185;23;19925;-83
2022/06/12 01:35:19;;;;;;;;;;;21.70;44.30;;;;;;6162767;23;19925;-83
2022/06/12 01:37:58;;;;;;;;;;;21.70;44.10;;;;;;6161257;23;19931;-83
2022/06/12 01:40:35;;;;;;;;;;;21.70;44.30;;;;;;6162881;23;19924;-78
2022/06/12 01:43:05;;;;;;;;;;;21.70;43.80;;;;;;6187335;23;20403;-79
2022/06/12 01:45:31;;;;;;;;;;;21.70;44.40;;;;;;6159637;23;19924;-78
2022/06/12 01:48:17;;;;;;;;;;;21.60;44.30;;;;;;6161892;23;20261;-79
2022/06/12 01:50:53;;;;;;;;;;;21.60;44.20;;;;;;6161062;23;19975;-79
2022/06/12 01:53:39;;;;;;;;;;;21.60;43.90;;;;;;6160811;23;19920;-78
2022/06/12 01:56:24;;;;;;;;;;;21.60;44.00;;;;;;6161880;23;19978;-78
2022/06/12 01:58:59;;;;;;;;;;;21.60;44.00;;;;;;6161616;23;19928;-85
2022/06/12 02:01:36;;;;;;;;;;;21.60;43.90;;;;;;6160955;23;19931;-82
2022/06/12 02:04:17;;;;;;;;;;;21.60;43.70;;;;;;6160633;23;19920;-77
2022/06/12 02:06:53;;;;;;;;;;;21.60;43.90;;;;;;6161802;23;19927;-79
2022/06/12 02:09:24;;;;;;;;;;;21.50;43.90;;;;;;6160812;23;19932;-82
2022/06/12 02:14:42;;;;;;;;;;;21.50;44.10;;;;;;6186981;23;19920;-80
2022/06/12 02:17:12;;;;;;;;;;;21.50;43.70;;;;;;6160878;23;19921;-78
2022/06/12 02:19:40;;;;;;;;;;;21.50;43.30;;;;;;6160641;23;20353;-79
2022/06/12 02:22:17;;;;;;;;;;;21.50;43.50;;;;;;6186554;23;19988;-80
2022/06/12 02:24:46;;;;;;;;;;;21.50;43.50;;;;;;6160594;23;19935;-83
2022/06/12 02:27:18;;;;;;;;;;;21.50;43.20;;;;;;6161161;23;19920;-79
2022/06/12 02:29:56;;;;;;;;;;;21.50;43.30;;;;;;6161651;23;19971;-79
2022/06/12 02:32:25;;;;;;;;;;;21.50;43.70;;;;;;6160466;23;20300;-78
2022/06/12 02:34:55;;;;;;;;;;;21.40;43.90;;;;;;6161035;23;19920;-80
2022/06/12 02:37:42;;;;;;;;;;;21.40;44.10;;;;;;6160583;23;20048;-78
2022/06/12 02:40:13;;;;;;;;;;;21.30;44.10;;;;;;6160368;23;19920;-79
2022/06/12 02:42:42;;;;;;;;;;;21.30;44.30;;;;;;6160381;23;19924;-77
2022/06/12 02:45:12;;;;;;;;;;;21.20;44.50;;;;;;6187399;23;19990;-78
2022/06/12 02:47:41;;;;;;;;;;;21.10;44.80;;;;;;6161075;23;20301;-78
2022/06/12 02:50:09;;;;;;;;;;;21.10;44.90;;;;;;6160777;23;19958;-82
2022/06/12 02:52:42;;;;;;;;;;;21.00;44.90;;;;;;6159957;23;19927;-82
2022/06/12 02:55:35;;;;;;;;;;;21.00;44.90;;;;;;6160306;23;19920;-78
2022/06/12 02:58:08;;;;;;;;;;;21.00;44.70;;;;;;6186291;23;19931;-84
2022/06/12 03:00:40;;;;;;;;;;;21.00;44.60;;;;;;6160606;23;19939;-79
2022/06/12 03:03:22;;;;;;;;;;;21.00;44.90;;;;;;6186147;23;20412;-79
2022/06/12 03:05:54;;;;;;;;;;;21.00;45.10;;;;;;6160676;23;19920;-80
2022/06/12 03:08:23;;;;;;;;;;;20.90;45.20;;;;;;6161180;23;20333;-79
2022/06/12 03:10:55;;;;;;;;;;;20.90;45.10;;;;;;6160469;23;19920;-79
2022/06/12 03:13:25;;;;;;;;;;;20.90;45.30;;;;;;6159590;23;19924;-77
2022/06/12 03:15:53;;;;;;;;;;;20.80;45.10;;;;;;6136287;23;19931;-79
2022/06/12 03:18:26;;;;;;;;;;;20.80;45.40;;;;;;6172941;23;19976;-82
2022/06/12 03:20:53;;;;;;;;;;;20.70;45.40;;;;;;6190026;23;19919;-79
2022/06/12 03:23:40;;;;;;;;;;;20.70;45.60;;;;;;6190254;23;19939;-78
2022/06/12 03:26:09;;;;;;;;;;;20.70;46.40;;;;;;6190125;23;19920;-82
2022/06/12 03:28:45;;;;;;;;;;;20.60;46.20;;;;;;6189867;23;19920;-79
2022/06/12 03:31:12;;;;;;;;;;;20.60;46.30;;;;;;6189803;23;19926;-77
2022/06/12 03:33:42;;;;;;;;;;;20.50;46.30;;;;;;6216226;23;19944;-78
2022/06/12 03:36:18;;;;;;;;;;;20.50;46.30;;;;;;6189591;23;19931;-79
2022/06/12 03:38:53;;;;;;;;;;;20.50;46.30;;;;;;6190334;23;20337;-79
2022/06/12 03:41:43;;;;;;;;;;;20.50;46.20;;;;;;6190122;23;20414;-82
2022/06/12 03:44:14;;;;;;;;;;;20.50;46.00;;;;;;6170852;23;19924;-79
2022/06/12 03:46:44;;;;;;;;;;;20.50;46.30;;;;;;6189900;23;19931;-79
2022/06/12 03:49:11;;;;;;;;;;;20.50;46.20;;;;;;6189701;23;19919;-77
2022/06/12 03:51:41;;;;;;;;;;;20.50;46.10;;;;;;6189636;23;19946;-78
2022/06/12 03:54:26;;;;;;;;;;;20.50;46.20;;;;;;6189584;23;19954;-77
2022/06/12 03:59:44;;;;;;;;;;;20.50;46.30;;;;;;6216229;23;20352;-79
2022/06/12 04:02:13;;;;;;;;;;;20.40;46.30;;;;;;6189477;23;19931;-82
2022/06/12 04:04:41;;;;;;;;;;;20.40;46.20;;;;;;6189647;23;19924;-78
2022/06/12 04:07:09;;;;;;;;;;;20.50;45.90;;;;;;6216308;23;19920;-77
2022/06/12 04:09:38;;;;;;;;;;;20.50;46.10;;;;;;6189201;23;19974;-82
2022/06/12 04:12:08;;;;;;;;;;;20.50;46.00;;;;;;6190360;23;19920;-79
2022/06/12 04:14:37;;;;;;;;;;;20.60;46.10;;;;;;6189891;23;19919;-80
2022/06/12 04:17:04;;;;;;;;;;;20.60;46.00;;;;;;6189587;23;20340;-77
2022/06/12 04:19:32;;;;;;;;;;;20.60;46.00;;;;;;6184208;23;19974;-77
2022/06/12 04:22:08;;;;;;;;;;;20.60;46.30;;;;;;6184574;23;19920;-78
2022/06/12 04:24:38;;;;;;;;;;;20.60;48.40;;;;;;6184005;23;19950;-78
2022/06/12 04:27:13;;;;;;;;;;;20.40;50.20;;;;;;6184577;23;19920;-78
2022/06/12 04:29:48;;;;;;;;;;;20.20;50.70;;;;;;6184328;23;20037;-79
2022/06/12 04:32:15;;;;;;;;;;;20.00;53.70;;;;;;6185236;23;19923;-78
2022/06/12 04:34:42;;;;;;;;;;;19.80;54.70;;;;;;6184625;23;19928;-81
2022/06/12 04:37:11;;;;;;;;;;;19.70;54.70;;;;;;6185691;23;19947;-78
2022/06/12 04:39:39;;;;;;;;;;;19.60;56.30;;;;;;6157947;23;19924;-81
2022/06/12 04:42:06;;;;;;;;;;;19.50;54.80;;;;;;6126688;23;20313;-77
2022/06/12 04:44:33;;;;;;;;;;;19.50;55.50;;;;;;6125451;23;19999;-77
2022/06/12 04:47:02;;;;;;;;;;;19.50;56.70;;;;;;6125048;23;19920;-81
2022/06/12 04:49:30;;;;;;;;;;;19.50;56.10;;;;;;6124810;23;19921;-77
2022/06/12 04:51:58;;;;;;;;;;;19.50;55.30;;;;;;6124815;23;19924;-77
2022/06/12 04:54:27;;;;;;;;;;;19.60;53.50;;;;;;6125302;23;19921;-78
2022/06/12 04:56:53;;;;;;;;;;;19.60;51.60;;;;;;6126869;23;20287;-80
2022/06/12 04:59:20;;;;;;;;;;;19.70;50.50;;;;;;6126996;23;19921;-77
2022/06/12 05:01:48;;;;;;;;;;;19.80;50.40;;;;;;6126797;23;19925;-79
2022/06/12 05:04:16;;;;;;;;;;;19.80;50.30;;;;;;6126373;23;19921;-79
2022/06/12 05:06:43;;;;;;;;;;;19.90;50.00;;;;;;6128499;23;19924;-77
2022/06/12 05:09:12;;;;;;;;;;;20.00;50.30;;;;;;6128173;23;19971;-78
2022/06/12 05:11:39;;;;;;;;;;;20.00;50.40;;;;;;6126669;23;19920;-78
2022/06/12 05:14:06;;;;;;;;;;;20.10;49.70;;;;;;6126811;23;19932;-77
2022/06/12 05:16:35;;;;;;;;;;;20.10;49.90;;;;;;6126296;23;20019;-77
2022/06/12 05:19:03;;;;;;;;;;;20.20;50.00;;;;;;6128179;23;19920;-77
2022/06/12 05:21:30;;;;;;;;;;;20.20;49.60;;;;;;6128612;23;19972;-81
2022/06/12 05:23:58;;;;;;;;;;;20.20;49.10;;;;;;6126488;23;19925;-80
2022/06/12 05:26:25;;;;;;;;;;;20.30;48.60;;;;;;6126680;23;19921;-81
2022/06/12 05:28:53;;;;;;;;;;;20.30;49.10;;;;;;6126328;23;19925;-77
2022/06/12 05:31:20;;;;;;;;;;;20.40;48.70;;;;;;6126719;23;19921;-79
2022/06/12 05:33:47;;;;;;;;;;;20.40;48.80;;;;;;6126185;23;19946;-79
2022/06/12 05:36:20;;;;;;;;;;;20.50;48.70;;;;;;6126733;23;19921;-80
2022/06/12 05:38:47;;;;;;;;;;;20.50;48.70;;;;;;6132723;23;19968;-78
2022/06/12 05:41:14;;;;;;;;;;;20.50;48.60;;;;;;6187467;23;19971;-81
2022/06/12 05:43:41;;;;;;;;;;;20.60;48.80;;;;;;6161075;23;19928;-78
2022/06/12 05:46:09;;;;;;;;;;;20.60;48.90;;;;;;6161644;23;19987;-79
2022/06/12 05:48:36;;;;;;;;;;;20.60;48.90;;;;;;6186770;23;19924;-78
2022/06/12 05:51:03;;;;;;;;;;;20.70;49.10;;;;;;6160764;23;19924;-79
2022/06/12 05:53:31;;;;;;;;;;;20.70;49.30;;;;;;6160760;23;19920;-81
2022/06/12 05:55:59;;;;;;;;;;;20.70;49.30;;;;;;6176618;23;19927;-81
2022/06/12 05:58:27;;;;;;;;;;;20.70;48.60;;;;;;6190937;23;20237;-79
2022/06/12 06:00:54;;;;;;;;;;;20.80;48.70;;;;;;6190906;23;19927;-82
2022/06/12 06:03:25;;;;;;;;;;;20.80;49.00;;;;;;6191132;23;19924;-77
2022/06/12 06:05:52;;;;;;;;;;;20.90;49.40;;;;;;6190908;23;20282;-77
2022/06/12 06:08:19;;;;;;;;;;;20.90;49.40;;;;;;6189962;23;19974;-77
2022/06/12 06:10:46;;;;;;;;;;;21.00;48.20;;;;;;6189890;23;19924;-79
2022/06/12 06:13:13;;;;;;;;;;;21.20;48.20;;;;;;6190463;23;19927;-78
2022/06/12 06:15:40;;;;;;;;;;;21.30;49.00;;;;;;6190896;23;19920;-80
2022/06/12 06:18:07;;;;;;;;;;;21.40;47.90;;;;;;6190734;23;19927;-80
2022/06/12 06:20:36;;;;;;;;;;;21.60;48.10;;;;;;6190068;23;19931;-77
2022/06/12 06:23:02;;;;;;;;;;;21.70;48.10;;;;;;6216036;23;19926;-77
2022/06/12 06:25:29;;;;;;;;;;;21.80;48.10;;;;;;6189853;23;20357;-78
2022/06/12 06:27:56;;;;;;;;;;;21.90;47.70;;;;;;6216927;23;19978;-78
2022/06/12 06:30:24;;;;;;;;;;;22.00;46.90;;;;;;6216220;23;20399;-79
2022/06/12 06:32:51;;;;;;;;;;;22.10;46.70;;;;;;6188707;23;19920;-79
2022/06/12 06:35:18;;;;;;;;;;;22.20;46.80;;;;;;6190418;23;19920;-78
2022/06/12 06:37:45;;;;;;;;;;;22.30;46.70;;;;;;6216432;23;20363;-81
2022/06/12 06:40:13;;;;;;;;;;;22.30;47.10;;;;;;6216565;23;19923;-80
2022/06/12 06:42:40;;;;;;;;;;;22.40;46.70;;;;;;6190115;23;20353;-80
2022/06/12 06:47:53;;;;;;;;;;;22.60;45.70;;;;;;6216504;23;19970;-80
2022/06/12 06:50:21;;;;;;;;;;;22.70;45.60;;;;;;6189452;23;19923;-78
2022/06/12 06:52:48;;;;;;;;;;;22.80;46.60;;;;;;6189668;23;20410;-77
2022/06/12 06:55:15;;;;;;;;;;;23.00;45.30;;;;;;6188808;23;19927;-77
2022/06/12 06:57:43;;;;;;;;;;;23.00;44.90;;;;;;6189495;23;19920;-80
2022/06/12 07:00:12;;;;;;;;;;;23.20;45.50;;;;;;6197116;22;19920;-78
2022/06/12 07:02:40;;;;;;;;;;;23.30;44.70;;;;;;6183634;23;20300;-79
2022/06/12 07:05:07;;;;;;;;;;;23.40;45.70;;;;;;6158908;23;20308;-78
2022/06/12 07:07:34;;;;;;;;;;;23.50;45.80;;;;;;6159824;23;20349;-81
2022/06/12 07:10:03;;;;;;;;;;;23.60;46.00;;;;;;6160169;23;19931;-80
2022/06/12 07:12:30;;;;;;;;;;;23.80;44.40;;;;;;6160209;23;19920;-78
2022/06/12 07:14:58;;;;;;;;;;;23.90;45.00;;;;;;6160276;23;20333;-79
2022/06/12 07:17:25;;;;;;;;;;;24.00;44.00;;;;;;6159877;23;19924;-80
2022/06/12 07:19:52;;;;;;;;;;;24.10;44.00;;;;;;6160056;23;19975;-80
2022/06/12 07:22:19;;;;;;;;;;;24.20;43.90;;;;;;6160022;23;19999;-78
2022/06/12 07:24:46;;;;;;;;;;;24.20;43.40;;;;;;6160006;23;19924;-81
2022/06/12 07:27:12;;;;;;;;;;;24.40;44.40;;;;;;6186099;23;20346;-79
2022/06/12 07:29:39;;;;;;;;;;;24.50;44.30;;;;;;6160184;23;20261;-79
2022/06/12 07:32:07;;;;;;;;;;;24.60;42.60;;;;;;6159889;23;19928;-81
2022/06/12 07:34:34;;;;;;;;;;;24.80;42.60;;;;;;6158918;23;20412;-81
2022/06/12 07:37:00;;;;;;;;;;;24.90;42.30;;;;;;6159238;23;19928;-80
2022/06/12 07:39:29;;;;;;;;;;;25.00;42.70;;;;;;6159101;23;19920;-79
2022/06/12 07:41:56;;;;;;;;;;;25.20;44.00;;;;;;6156607;23;19971;-77
2022/06/12 07:44:24;;;;;;;;;;;25.30;42.70;;;;;;6157944;23;19928;-80
2022/06/12 07:46:52;;;;;;;;;;;25.50;42.30;;;;;;6158589;23;19928;-78
2022/06/12 07:49:20;;;;;;;;;;;25.70;41.40;;;;;;6154677;23;19991;-78
2022/06/12 07:51:48;;;;;;;;;;;25.90;40.00;;;;;;6182371;23;19924;-78
2022/06/12 07:54:16;;;;;;;;;;;26.00;40.00;;;;;;6154947;23;19924;-78
2022/06/12 07:56:44;;;;;;;;;;;26.20;38.70;;;;;;6182251;23;20022;-79
2022/06/12 07:59:11;;;;;;;;;;;26.40;38.10;;;;;;6158194;23;19920;-79
2022/06/12 08:01:38;;;;;;;;;;;26.40;39.40;;;;;;6184730;23;19928;-78
2022/06/12 08:04:06;;;;;;;;;;;26.60;38.40;;;;;;6155786;23;19924;-78
2022/06/12 08:06:33;;;;;;;;;;;26.70;39.10;;;;;;6159223;23;19966;-78
2022/06/12 08:09:00;;;;;;;;;;;26.70;39.40;;;;;;6188140;23;19924;-78
2022/06/12 08:11:29;;;;;;;;;;;26.80;39.50;;;;;;6214455;23;19983;-82
2022/06/12 08:13:56;;;;;;;;;;;26.90;39.50;;;;;;6188206;23;19950;-79
2022/06/12 08:16:23;;;;;;;;;;;27.00;39.60;;;;;;6214179;23;19920;-78
2022/06/12 08:18:50;;;;;;;;;;;27.10;39.60;;;;;;6188256;23;19924;-78
2022/06/12 08:21:17;;;;;;;;;;;27.20;39.80;;;;;;6188086;23;19924;-80
2022/06/12 08:23:50;;;;;;;;;;;27.30;40.20;;;;;;6215229;23;19927;-77
2022/06/12 08:26:18;;;;;;;;;;;27.40;40.40;;;;;;6213755;23;19982;-79
2022/06/12 21:47:57;;;;;;;;;;;24.40;49.00;;;;;;6169573;23;19931;-77
2022/06/12 21:50:25;;;;;;;;;;;24.40;48.80;;;;;;6161397;23;19987;-77
2022/06/12 21:55:37;;;;;;;;;;;24.50;47.60;;;;;;6187277;23;19924;-80
2022/06/12 21:58:05;;;;;;;;;;;24.60;47.50;;;;;;6187243;23;19920;-77
2022/06/12 22:00:32;;;;;;;;;;;24.60;47.30;;;;;;6161125;23;19924;-80
2022/06/12 22:02:59;;;;;;;;;;;24.60;47.30;;;;;;6159851;23;19921;-77
2022/06/12 22:05:26;;;;;;;;;;;24.60;46.90;;;;;;6186069;23;19924;-79
2022/06/12 22:07:53;;;;;;;;;;;24.60;47.10;;;;;;6186157;23;20357;-79
2022/06/12 22:10:20;;;;;;;;;;;24.70;47.20;;;;;;6159861;23;19920;-80
2022/06/12 22:12:47;;;;;;;;;;;24.70;46.90;;;;;;6160598;23;19924;-78
2022/06/12 22:15:16;;;;;;;;;;;24.80;47.10;;;;;;6160308;23;19927;-77
2022/06/12 22:17:43;;;;;;;;;;;24.80;46.40;;;;;;6160306;23;20333;-81
2022/06/12 22:20:10;;;;;;;;;;;24.80;46.30;;;;;;6160068;23;19928;-77
2022/06/12 22:22:37;;;;;;;;;;;24.80;45.90;;;;;;6186245;23;19924;-80
2022/06/12 22:25:04;;;;;;;;;;;24.80;46.00;;;;;;6185853;23;20257;-77
2022/06/12 22:27:31;;;;;;;;;;;24.90;45.10;;;;;;6160267;23;19921;-77
2022/06/12 22:29:57;;;;;;;;;;;24.90;45.30;;;;;;6160776;23;20419;-77
2022/06/12 22:32:24;;;;;;;;;;;24.90;45.50;;;;;;6186522;23;19947;-77
2022/06/12 22:34:53;;;;;;;;;;;24.90;45.60;;;;;;6186791;23;19924;-77
2022/06/12 22:37:19;;;;;;;;;;;24.90;45.80;;;;;;6160582;23;19920;-79
2022/06/12 22:39:46;;;;;;;;;;;24.90;45.60;;;;;;6160399;23;19924;-77
2022/06/12 22:42:13;;;;;;;;;;;24.90;45.80;;;;;;6160775;23;19920;-80
2022/06/12 22:44:40;;;;;;;;;;;24.90;45.50;;;;;;6160183;23;19920;-78
2022/06/12 22:47:07;;;;;;;;;;;24.90;45.70;;;;;;6161035;23;19920;-80
2022/06/12 22:49:34;;;;;;;;;;;24.80;45.60;;;;;;6160121;23;19921;-78
2022/06/12 22:52:01;;;;;;;;;;;24.80;45.60;;;;;;6160302;23;19986;-78
2022/06/12 22:54:28;;;;;;;;;;;24.90;45.70;;;;;;6160279;23;20304;-79
2022/06/12 22:56:54;;;;;;;;;;;24.90;45.70;;;;;;6160161;23;19921;-77
2022/06/12 22:59:21;;;;;;;;;;;24.90;45.70;;;;;;6160338;23;20300;-77
2022/06/12 23:01:48;;;;;;;;;;;24.80;45.80;;;;;;6160086;23;19987;-76
2022/06/12 23:04:16;;;;;;;;;;;24.80;46.00;;;;;;6160444;23;19940;-79
2022/06/12 23:06:43;;;;;;;;;;;24.80;46.40;;;;;;6186224;23;19971;-78
2022/06/12 23:09:10;;;;;;;;;;;24.80;46.30;;;;;;6160377;23;20305;-77
2022/06/12 23:11:37;;;;;;;;;;;24.80;45.90;;;;;;6160471;23;19975;-80
2022/06/12 23:14:03;;;;;;;;;;;24.80;45.60;;;;;;6160647;23;19924;-77
2022/06/12 23:16:30;;;;;;;;;;;24.80;45.30;;;;;;6159945;23;19971;-79
2022/06/12 23:18:57;;;;;;;;;;;24.80;45.10;;;;;;6160411;23;20329;-77
2022/06/12 23:21:24;;;;;;;;;;;24.90;45.30;;;;;;6185443;23;19975;-79
2022/06/12 23:23:51;;;;;;;;;;;24.90;45.30;;;;;;6186310;23;19932;-79
2022/06/12 23:26:19;;;;;;;;;;;24.90;45.30;;;;;;6160208;23;19928;-77
2022/06/12 23:28:47;;;;;;;;;;;24.90;46.00;;;;;;6159912;23;19921;-79
2022/06/12 23:31:15;;;;;;;;;;;24.80;46.70;;;;;;6160278;23;20366;-78
2022/06/12 23:33:42;;;;;;;;;;;24.80;47.00;;;;;;6160403;23;19924;-80
2022/06/12 23:36:09;;;;;;;;;;;24.70;46.80;;;;;;6185869;23;19959;-77
2022/06/12 23:38:36;;;;;;;;;;;24.70;46.40;;;;;;6159893;23;19921;-82
2022/06/12 23:41:03;;;;;;;;;;;24.70;47.10;;;;;;6160001;23;19943;-77
2022/06/12 23:43:32;;;;;;;;;;;24.70;47.10;;;;;;6159933;23;19920;-79
2022/06/12 23:46:09;;;;;;;;;;;24.70;47.10;;;;;;6160674;23;20333;-79
2022/06/12 23:48:36;;;;;;;;;;;24.70;46.70;;;;;;6159381;23;19924;-76
2022/06/12 23:51:04;;;;;;;;;;;24.60;46.70;;;;;;6160004;23;19922;-77
2022/06/12 23:53:31;;;;;;;;;;;24.60;46.60;;;;;;6159744;23;20419;-79
2022/06/12 23:55:58;;;;;;;;;;;24.70;46.40;;;;;;6159972;23;19924;-77
2022/06/12 23:58:25;;;;;;;;;;;24.70;46.60;;;;;;6159626;23;19920;-77
